createdAt,value
2022-12-03T00:00:18.336Z,18.27
2022-12-03T00:02:44.908Z,19.08
2022-12-03T00:05:11.539Z,20.38
2022-12-03T00:07:38.113Z,18.27
2022-12-03T00:10:05.677Z,18.30
2022-12-03T00:12:32.092Z,19.08
2022-12-03T00:14:58.695Z,20.02
2022-12-03T00:17:25.228Z,20.50
2022-12-03T00:19:51.685Z,19.20
2022-12-03T00:22:18.129Z,16.93
2022-12-03T00:24:44.580Z,19.40
2022-12-03T00:27:11.023Z,19.88
2022-12-03T00:29:37.440Z,20.73
2022-12-03T00:32:03.927Z,20.48
2022-12-03T00:34:30.357Z,21.47
2022-12-03T00:36:56.831Z,21.48
2022-12-03T00:39:23.235Z,19.00
2022-12-03T00:41:49.632Z,20.65
2022-12-03T00:44:16.163Z,21.20
2022-12-03T00:46:42.743Z,19.43
2022-12-03T00:49:09.309Z,20.38
2022-12-03T00:51:35.929Z,21.50
2022-12-03T00:54:02.426Z,21.08
2022-12-03T00:56:28.866Z,21.17
2022-12-03T00:58:55.320Z,18.27
2022-12-03T01:01:21.850Z,20.27
2022-12-03T01:03:48.315Z,21.67
2022-12-03T01:06:14.760Z,20.23
2022-12-03T01:08:41.243Z,20.08
2022-12-03T01:11:27.721Z,20.90
2022-12-03T01:13:54.152Z,20.80
2022-12-03T01:16:20.742Z,20.75
2022-12-03T01:18:47.388Z,19.33
2022-12-03T01:21:13.798Z,20.90
2022-12-03T01:23:40.245Z,20.53
2022-12-03T01:26:06.697Z,21.10
2022-12-03T01:28:33.203Z,20.13
2022-12-03T01:31:18.048Z,20.83
2022-12-03T01:33:44.561Z,20.00
2022-12-03T01:36:10.965Z,20.47
2022-12-03T01:38:37.360Z,19.65
2022-12-03T01:41:10.075Z,20.27
2022-12-03T01:43:38.468Z,20.80
2022-12-03T01:46:05.186Z,20.98
2022-12-03T01:48:34.855Z,20.37
2022-12-03T01:51:01.852Z,21.30
2022-12-03T01:53:28.306Z,21.30
2022-12-03T01:55:54.889Z,19.45
2022-12-03T01:58:26.205Z,19.50
2022-12-03T02:00:52.665Z,20.87
2022-12-03T02:03:23.376Z,21.20
2022-12-03T02:05:50.616Z,20.98
2022-12-03T02:08:34.945Z,21.13
2022-12-03T02:11:19.694Z,20.55
2022-12-03T02:13:47.827Z,18.37
2022-12-03T02:16:14.331Z,21.33
2022-12-03T02:18:41.399Z,19.67
2022-12-03T02:21:22.176Z,21.05
2022-12-03T02:24:01.724Z,19.98
2022-12-03T02:26:29.720Z,20.60
2022-12-03T02:28:56.881Z,20.67
2022-12-03T02:31:24.096Z,20.40
2022-12-03T02:33:50.760Z,19.77
2022-12-03T02:36:17.362Z,19.88
2022-12-03T02:38:45.460Z,19.53
2022-12-03T02:41:34.674Z,18.52
2022-12-03T02:44:01.677Z,21.65
2022-12-03T02:46:28.467Z,21.92
2022-12-03T02:48:55.149Z,21.50
2022-12-03T02:51:21.611Z,22.47
2022-12-03T02:53:50.120Z,22.13
2022-12-03T02:56:20.626Z,20.00
2022-12-03T02:58:49.721Z,22.20
2022-12-03T03:01:17.465Z,21.55
2022-12-03T03:03:45.619Z,21.13
2022-12-03T03:06:12.603Z,23.20
2022-12-03T03:08:40.237Z,18.48
2022-12-03T03:11:06.687Z,21.65
2022-12-03T03:13:35.364Z,22.63
2022-12-03T03:16:03.958Z,21.03
2022-12-03T03:18:31.090Z,20.60
2022-12-03T03:20:57.516Z,21.98
2022-12-03T03:23:24.491Z,21.20
2022-12-03T03:26:12.240Z,21.63
2022-12-03T03:28:45.561Z,21.70
2022-12-03T03:31:15.381Z,21.65
2022-12-03T03:33:45.185Z,21.95
2022-12-03T03:36:13.092Z,21.75
2022-12-03T03:38:39.756Z,22.42
2022-12-03T03:41:08.864Z,21.33
2022-12-03T03:43:37.975Z,21.42
2022-12-03T03:46:06.416Z,22.80
2022-12-03T03:48:34.642Z,21.52
2022-12-03T03:51:09.235Z,22.52
2022-12-03T03:53:39.337Z,20.03
2022-12-03T03:56:06.518Z,21.02
2022-12-03T03:58:33.053Z,22.70
2022-12-03T04:01:00.756Z,22.65
2022-12-03T04:03:28.356Z,21.77
2022-12-03T04:05:54.910Z,22.13
2022-12-03T04:08:21.428Z,20.73
2022-12-03T04:11:06.084Z,19.95
2022-12-03T04:13:32.512Z,21.55
2022-12-03T04:15:59.091Z,21.67
2022-12-03T04:18:43.652Z,22.60
2022-12-03T04:21:36.558Z,21.42
2022-12-03T04:24:04.270Z,19.40
2022-12-03T04:26:49.592Z,21.30
2022-12-03T04:29:16.198Z,20.38
2022-12-03T04:32:01.313Z,20.90
2022-12-03T04:34:46.051Z,20.52
2022-12-03T04:37:12.677Z,19.30
2022-12-03T04:39:39.264Z,21.55
2022-12-03T04:42:06.368Z,20.27
2022-12-03T04:44:33.469Z,20.57
2022-12-03T04:47:00.780Z,20.20
2022-12-03T04:49:27.228Z,19.00
2022-12-03T04:51:53.705Z,18.77
2022-12-03T04:54:20.150Z,17.77
2022-12-03T04:56:46.618Z,18.57
2022-12-03T04:59:16.255Z,19.40
2022-12-03T05:01:44.298Z,19.23
2022-12-03T05:04:11.479Z,18.25
2022-12-03T05:06:38.030Z,19.20
2022-12-03T05:09:04.720Z,18.57
2022-12-03T05:11:31.231Z,18.67
2022-12-03T05:13:57.688Z,20.35
2022-12-03T05:16:24.209Z,19.30
2022-12-03T05:18:50.731Z,18.45
2022-12-03T05:21:17.267Z,20.07
2022-12-03T05:23:44.091Z,20.17
2022-12-03T05:26:10.827Z,18.63
2022-12-03T05:28:37.249Z,19.90
2022-12-03T05:31:05.107Z,19.42
2022-12-03T05:33:31.730Z,18.50
2022-12-03T05:35:58.440Z,19.35
2022-12-03T05:38:24.835Z,19.77
2022-12-03T05:40:51.275Z,19.00
2022-12-03T05:43:17.753Z,19.88
2022-12-03T05:45:45.120Z,18.20
2022-12-03T05:48:14.453Z,18.13
2022-12-03T05:50:44.267Z,18.75
2022-12-03T05:53:11.812Z,19.70
2022-12-03T05:55:38.641Z,19.40
2022-12-03T05:58:05.493Z,18.90
2022-12-03T06:00:42.504Z,19.63
2022-12-03T06:03:10.191Z,19.20
2022-12-03T06:05:36.877Z,18.58
2022-12-03T06:08:03.536Z,18.38
2022-12-03T06:10:30.484Z,18.27
2022-12-03T06:12:57.130Z,18.40
2022-12-03T06:15:23.897Z,18.67
2022-12-03T06:17:50.538Z,19.20
2022-12-03T06:20:19.714Z,18.30
2022-12-03T06:22:46.879Z,18.07
2022-12-03T06:25:14.144Z,18.63
2022-12-03T06:27:40.601Z,17.05
2022-12-03T06:30:08.902Z,17.80
2022-12-03T06:32:35.854Z,16.88
2022-12-03T06:35:02.802Z,19.10
2022-12-03T06:37:29.253Z,18.42
2022-12-03T06:39:55.668Z,17.02
2022-12-03T06:42:22.457Z,18.52
2022-12-03T06:44:48.916Z,19.00
2022-12-03T06:47:15.344Z,17.57
2022-12-03T06:49:41.856Z,18.80
2022-12-03T06:52:08.333Z,17.70
2022-12-03T06:54:34.805Z,18.65
2022-12-03T06:57:01.345Z,18.20
2022-12-03T06:59:27.854Z,19.53
2022-12-03T07:01:54.359Z,19.92
2022-12-03T07:04:20.825Z,17.88
2022-12-03T07:06:47.277Z,18.30
2022-12-03T07:09:16.313Z,19.55
2022-12-03T07:11:42.953Z,19.77
2022-12-03T07:14:11.333Z,20.50
2022-12-03T07:16:39.285Z,19.38
2022-12-03T07:19:06.935Z,17.30
2022-12-03T07:21:33.688Z,19.48
2022-12-03T07:24:00.513Z,19.63
2022-12-03T07:26:27.233Z,17.75
2022-12-03T07:28:53.690Z,19.00
2022-12-03T07:31:20.267Z,19.50
2022-12-03T07:33:46.828Z,18.67
2022-12-03T07:36:13.265Z,19.47
2022-12-03T07:38:39.764Z,20.13
2022-12-03T07:41:06.282Z,18.92
2022-12-03T07:43:32.953Z,19.75
2022-12-03T07:45:59.386Z,20.60
2022-12-03T07:48:25.854Z,20.37
2022-12-03T07:50:52.329Z,17.77
2022-12-03T07:53:18.885Z,19.88
2022-12-03T07:55:45.648Z,19.70
2022-12-03T07:58:12.136Z,19.55
2022-12-03T08:00:38.664Z,18.63
2022-12-03T08:03:05.172Z,19.35
2022-12-03T08:05:31.638Z,19.60
2022-12-03T08:07:58.127Z,20.67
2022-12-03T08:10:26.621Z,20.20
2022-12-03T08:12:53.763Z,20.60
2022-12-03T08:15:26.610Z,20.27
2022-12-03T08:18:01.541Z,20.15
2022-12-03T08:20:31.736Z,18.63
2022-12-03T08:22:58.930Z,20.42
2022-12-03T08:25:26.672Z,19.37
2022-12-03T08:27:57.816Z,21.05
2022-12-03T08:30:24.367Z,22.42
2022-12-03T08:32:51.114Z,20.55
2022-12-03T08:35:27.407Z,21.05
2022-12-03T08:38:06.085Z,21.53
2022-12-03T08:40:39.584Z,30.02
2022-12-03T08:43:22.957Z,24.23
2022-12-03T08:45:52.030Z,21.27
2022-12-03T08:48:18.426Z,23.00
2022-12-03T08:50:45.223Z,22.27
2022-12-03T08:53:25.742Z,25.02
2022-12-03T08:55:54.303Z,23.65
2022-12-03T08:58:32.222Z,23.77
2022-12-03T09:01:14.290Z,26.67
2022-12-03T09:04:21.229Z,23.67
2022-12-03T09:06:48.288Z,23.52
2022-12-03T09:09:14.904Z,25.35
2022-12-03T09:11:43.176Z,23.77
2022-12-03T09:14:15.102Z,21.95
2022-12-03T09:16:44.741Z,24.73
2022-12-03T09:19:11.305Z,26.10
2022-12-03T09:21:37.734Z,24.42
2022-12-03T09:24:04.261Z,25.13
2022-12-03T09:26:31.275Z,23.08
2022-12-03T09:28:57.812Z,23.63
2022-12-03T09:31:24.384Z,25.83
2022-12-03T09:33:50.966Z,24.02
2022-12-03T09:36:17.430Z,25.95
2022-12-03T09:38:47.731Z,25.23
2022-12-03T09:41:14.841Z,23.57
2022-12-03T09:44:03.202Z,27.23
2022-12-03T09:46:30.123Z,25.98
2022-12-03T09:48:56.884Z,24.40
2022-12-03T09:51:30.125Z,26.90
2022-12-03T09:53:59.215Z,26.63
2022-12-03T09:56:25.712Z,25.05
2022-12-03T09:58:52.490Z,26.10
2022-12-03T10:01:19.062Z,24.88
2022-12-03T10:03:51.143Z,26.92
2022-12-03T10:06:22.654Z,26.13
2022-12-03T10:08:52.874Z,26.25
2022-12-03T10:11:21.402Z,23.90
2022-12-03T10:13:48.459Z,27.08
2022-12-03T10:16:18.609Z,24.90
2022-12-03T10:18:49.565Z,26.23
2022-12-03T10:21:38.534Z,25.67
2022-12-03T10:24:17.728Z,25.25
2022-12-03T10:26:45.769Z,25.15
2022-12-03T10:29:19.746Z,24.70
2022-12-03T10:31:54.146Z,24.53
2022-12-03T10:34:30.686Z,24.17
2022-12-03T10:37:08.726Z,27.02
2022-12-03T10:39:55.920Z,25.88
2022-12-03T10:42:23.685Z,25.40
2022-12-03T10:45:06.201Z,26.17
2022-12-03T10:47:32.785Z,26.40
2022-12-03T10:50:06.127Z,25.83
2022-12-03T10:52:32.874Z,24.25
2022-12-03T10:54:59.399Z,25.55
2022-12-03T10:57:26.376Z,25.10
2022-12-03T10:59:52.800Z,25.20
2022-12-03T11:02:22.464Z,23.52
2022-12-03T11:04:50.317Z,23.33
2022-12-03T11:07:21.836Z,22.08
2022-12-03T11:09:51.903Z,24.47
2022-12-03T11:12:24.686Z,23.10
2022-12-03T11:14:51.931Z,25.20
2022-12-03T11:17:40.259Z,23.65
2022-12-03T11:20:24.984Z,24.75
2022-12-03T11:22:52.913Z,27.00
2022-12-03T11:25:25.397Z,24.67
2022-12-03T11:28:10.466Z,23.55
2022-12-03T11:30:49.212Z,23.30
2022-12-03T11:33:33.328Z,23.08
2022-12-03T11:36:02.474Z,23.30
2022-12-03T11:38:38.274Z,22.42
2022-12-03T11:41:35.053Z,23.58
2022-12-03T11:44:26.716Z,22.95
2022-12-03T11:46:54.163Z,23.05
2022-12-03T11:49:37.721Z,24.20
2022-12-03T11:52:19.917Z,21.15
2022-12-03T11:54:50.398Z,22.80
2022-12-03T11:57:26.559Z,20.92
2022-12-03T12:00:01.738Z,22.15
2022-12-03T12:02:28.299Z,21.50
2022-12-03T12:04:54.762Z,21.80
2022-12-03T12:07:35.133Z,21.23
2022-12-03T12:10:01.878Z,22.25
2022-12-03T12:12:31.047Z,22.70
2022-12-03T12:14:59.055Z,23.47
2022-12-03T12:17:36.528Z,21.33
2022-12-03T12:20:21.688Z,19.48
2022-12-03T12:22:48.181Z,19.70
2022-12-03T12:25:29.622Z,21.45
2022-12-03T12:27:56.978Z,19.17
2022-12-03T12:30:24.090Z,21.00
2022-12-03T12:32:52.989Z,19.08
2022-12-03T12:35:24.962Z,18.45
2022-12-03T12:38:08.669Z,18.23
2022-12-03T12:40:38.640Z,17.63
2022-12-03T12:43:15.340Z,16.05
2022-12-03T12:45:43.996Z,17.00
2022-12-03T12:48:16.340Z,16.70
2022-12-03T12:50:45.337Z,17.83
2022-12-03T12:53:20.804Z,16.27
2022-12-03T12:55:48.678Z,17.67
2022-12-03T12:58:18.239Z,18.05
2022-12-03T13:00:50.898Z,16.67
2022-12-03T13:03:20.102Z,16.25
2022-12-03T13:05:49.212Z,18.13
2022-12-03T13:08:23.318Z,16.25
2022-12-03T13:10:52.255Z,17.20
2022-12-03T13:13:25.332Z,17.83
2022-12-03T13:16:04.029Z,17.40
2022-12-03T13:18:41.561Z,17.70
2022-12-03T13:21:24.406Z,18.35
2022-12-03T13:23:53.615Z,17.92
2022-12-03T13:26:39.417Z,18.92
2022-12-03T13:29:18.171Z,19.77
2022-12-03T13:31:54.212Z,18.30
2022-12-03T13:34:24.010Z,18.55
2022-12-03T13:36:57.659Z,18.65
2022-12-03T13:39:36.803Z,19.23
2022-12-03T13:42:40.997Z,19.65
2022-12-03T13:45:16.274Z,22.83
2022-12-03T13:47:53.162Z,27.17
2022-12-03T13:50:41.030Z,32.35
2022-12-03T13:53:22.510Z,36.17
2022-12-03T13:55:54.012Z,34.10
2022-12-03T13:58:20.444Z,29.70
2022-12-03T14:00:46.961Z,32.85
2022-12-03T14:03:13.548Z,35.75
2022-12-03T14:05:40.003Z,42.33
2022-12-03T14:08:06.582Z,27.27
2022-12-03T14:10:33.233Z,37.00
2022-12-03T14:12:59.662Z,43.72
2022-12-03T14:15:28.889Z,39.72
2022-12-03T14:17:55.398Z,30.75
2022-12-03T14:20:22.148Z,26.25
2022-12-03T14:22:48.616Z,25.00
2022-12-03T14:25:15.123Z,23.30
2022-12-03T14:27:41.628Z,23.35
2022-12-03T14:30:09.201Z,26.02
2022-12-03T14:32:35.692Z,22.55
2022-12-03T14:35:06.705Z,24.00
2022-12-03T14:37:36.472Z,26.85
2022-12-03T14:40:03.921Z,26.80
2022-12-03T14:42:30.401Z,26.23
2022-12-03T14:44:56.822Z,25.77
2022-12-03T14:47:23.288Z,25.27
2022-12-03T14:49:50.649Z,24.73
2022-12-03T14:52:18.131Z,25.75
2022-12-03T14:54:45.253Z,24.85
2022-12-03T14:57:13.959Z,24.70
2022-12-03T14:59:41.608Z,26.23
2022-12-03T15:02:09.844Z,26.52
2022-12-03T15:04:36.768Z,27.10
2022-12-03T15:07:03.574Z,26.65
2022-12-03T15:09:30.028Z,24.70
2022-12-03T15:11:56.445Z,26.57
2022-12-03T15:14:22.898Z,26.58
2022-12-03T15:16:49.390Z,25.70
2022-12-03T15:19:16.140Z,21.52
2022-12-03T15:21:42.665Z,24.00
2022-12-03T15:24:10.613Z,23.03
2022-12-03T15:26:37.420Z,22.33
2022-12-03T15:29:03.840Z,22.05
2022-12-03T15:31:30.436Z,22.70
2022-12-03T15:33:56.933Z,21.38
2022-12-03T15:36:23.426Z,23.57
2022-12-03T15:38:49.920Z,23.88
2022-12-03T15:41:24.580Z,22.38
2022-12-03T15:43:52.641Z,22.05
2022-12-03T15:46:20.296Z,21.20
2022-12-03T15:48:47.432Z,21.57
2022-12-03T15:51:14.257Z,21.77
2022-12-03T15:53:41.082Z,22.25
2022-12-03T15:56:07.697Z,22.13
2022-12-03T15:58:34.569Z,20.45
2022-12-03T16:01:01.429Z,21.57
2022-12-03T16:03:28.065Z,21.83
2022-12-03T16:05:54.609Z,20.95
2022-12-03T16:08:21.474Z,23.30
2022-12-03T16:10:48.043Z,23.13
2022-12-03T16:13:14.472Z,21.13
2022-12-03T16:15:41.009Z,22.58
2022-12-03T16:18:07.429Z,22.85
2022-12-03T16:20:33.861Z,22.27
2022-12-03T16:23:00.282Z,22.25
2022-12-03T16:25:26.838Z,21.30
2022-12-03T16:27:53.341Z,21.95
2022-12-03T16:30:20.209Z,22.20
2022-12-03T16:32:46.658Z,22.67
2022-12-03T16:35:13.089Z,24.23
2022-12-03T16:37:39.536Z,22.30
2022-12-03T16:40:07.208Z,23.05
2022-12-03T16:42:33.736Z,26.50
2022-12-03T16:45:02.865Z,25.75
2022-12-03T16:47:33.784Z,25.45
2022-12-03T16:50:01.901Z,24.37
2022-12-03T16:52:28.457Z,25.77
2022-12-03T16:54:54.949Z,25.15
2022-12-03T16:57:21.375Z,25.50
2022-12-03T16:59:47.822Z,25.25
2022-12-03T17:02:14.458Z,24.30
2022-12-03T17:04:40.999Z,27.38
2022-12-03T17:07:07.416Z,25.30
2022-12-03T17:09:33.820Z,27.02
2022-12-03T17:12:00.262Z,27.42
2022-12-03T17:14:32.800Z,29.10
2022-12-03T17:16:59.742Z,26.02
2022-12-03T17:19:26.231Z,29.20
2022-12-03T17:21:54.014Z,26.45
2022-12-03T17:24:21.389Z,27.95
2022-12-03T17:26:47.905Z,29.00
2022-12-03T17:29:14.371Z,28.45
2022-12-03T17:31:42.613Z,29.25
2022-12-03T17:34:09.605Z,25.20
2022-12-03T17:36:36.053Z,28.50
2022-12-03T17:39:02.540Z,28.50
2022-12-03T17:41:29.028Z,31.02
2022-12-03T17:43:55.504Z,28.20
2022-12-03T17:46:22.002Z,29.13
2022-12-03T17:48:48.494Z,27.88
2022-12-03T17:51:14.945Z,29.10
2022-12-03T17:53:41.422Z,29.75
2022-12-03T17:56:07.945Z,26.95
2022-12-03T17:58:34.747Z,26.60
2022-12-03T18:01:03.172Z,29.05
2022-12-03T18:03:30.277Z,27.63
2022-12-03T18:05:56.918Z,26.48
2022-12-03T18:08:23.470Z,28.58
2022-12-03T18:10:50.271Z,28.13
2022-12-03T18:13:16.732Z,29.88
2022-12-03T18:15:43.283Z,30.90
2022-12-03T18:18:09.916Z,29.38
2022-12-03T18:20:36.675Z,27.55
2022-12-03T18:23:03.551Z,30.13
2022-12-03T18:25:30.605Z,29.27
2022-12-03T18:27:57.345Z,30.20
2022-12-03T18:30:24.043Z,30.05
2022-12-03T18:32:50.905Z,31.05
2022-12-03T18:35:17.987Z,28.95
2022-12-03T18:37:44.598Z,29.55
2022-12-03T18:40:23.094Z,29.27
2022-12-03T18:42:49.574Z,27.88
2022-12-03T18:45:16.689Z,29.25
2022-12-03T18:47:43.441Z,29.67
2022-12-03T18:50:11.407Z,30.35
2022-12-03T18:52:38.679Z,27.27
2022-12-03T18:55:06.417Z,29.23
2022-12-03T18:57:32.865Z,29.25
2022-12-03T19:00:01.581Z,28.30
2022-12-03T19:05:14.441Z,29.23
2022-12-03T19:07:40.960Z,29.10
2022-12-03T19:10:08.712Z,29.27
2022-12-03T19:12:35.575Z,27.88
2022-12-03T19:15:02.652Z,27.83
2022-12-03T19:17:29.093Z,29.07
2022-12-03T19:19:55.850Z,29.75
2022-12-03T19:22:22.948Z,27.58
2022-12-03T19:24:49.796Z,24.85
2022-12-03T19:27:16.320Z,27.33
2022-12-03T19:29:42.812Z,28.13
2022-12-03T19:32:09.423Z,29.92
2022-12-03T19:34:36.220Z,28.08
2022-12-03T19:37:02.679Z,29.52
2022-12-03T19:39:29.207Z,27.50
2022-12-03T19:41:55.740Z,28.43
2022-12-03T19:44:22.229Z,29.88
2022-12-03T19:46:49.704Z,27.55
2022-12-03T19:49:18.447Z,29.50
2022-12-03T19:51:44.921Z,26.30
2022-12-03T19:54:11.965Z,28.33
2022-12-03T19:56:38.448Z,27.45
2022-12-03T19:59:05.344Z,25.42
2022-12-03T20:01:34.636Z,23.20
2022-12-03T20:04:03.118Z,24.50
2022-12-03T20:06:33.639Z,25.67
2022-12-03T20:09:04.955Z,27.88
2022-12-03T20:11:32.837Z,25.55
2022-12-03T20:14:02.378Z,26.75
2022-12-03T20:16:30.074Z,34.65
2022-12-03T20:18:59.627Z,28.00
2022-12-03T20:21:28.375Z,25.98
2022-12-03T20:23:54.808Z,26.15
2022-12-03T20:26:21.802Z,25.10
2022-12-03T20:28:48.650Z,26.08
2022-12-03T20:31:18.257Z,29.73
2022-12-03T20:33:50.212Z,28.10
2022-12-03T20:36:18.483Z,28.85
2022-12-03T20:38:45.136Z,27.75
2022-12-03T20:41:14.409Z,27.40
2022-12-03T20:43:41.431Z,30.40
2022-12-03T20:46:12.271Z,29.00
2022-12-03T20:48:39.377Z,27.55
2022-12-03T20:51:07.592Z,27.48
2022-12-03T20:53:35.172Z,27.52
2022-12-03T20:56:02.197Z,27.33
2022-12-03T20:58:30.057Z,27.00
2022-12-03T21:00:56.780Z,27.10
2022-12-03T21:03:23.213Z,27.35
2022-12-03T21:05:49.749Z,29.17
2022-12-03T21:08:20.926Z,31.43
2022-12-03T21:10:55.239Z,31.85
2022-12-03T21:13:21.919Z,29.33
2022-12-03T21:15:48.560Z,27.42
2022-12-03T21:18:17.570Z,27.35
2022-12-03T21:20:46.441Z,26.37
2022-12-03T21:23:14.052Z,27.90
2022-12-03T21:25:40.689Z,28.60
2022-12-03T21:28:09.397Z,26.38
2022-12-03T21:30:39.945Z,29.48
2022-12-03T21:33:06.972Z,34.67
2022-12-03T21:35:37.416Z,28.13
2022-12-03T21:38:04.011Z,28.08
2022-12-03T21:40:30.530Z,35.30
2022-12-03T21:42:56.990Z,31.50
2022-12-03T21:45:25.005Z,28.77
2022-12-03T21:47:51.620Z,29.92
2022-12-03T21:50:18.191Z,27.27
2022-12-03T21:52:44.656Z,28.35
2022-12-03T21:55:11.207Z,28.83
2022-12-03T21:57:37.892Z,28.90
2022-12-03T22:00:07.755Z,28.30
2022-12-03T22:02:34.771Z,29.05
2022-12-03T22:05:02.348Z,28.13
2022-12-03T22:07:28.869Z,28.58
2022-12-03T22:09:55.620Z,28.53
2022-12-03T22:12:22.241Z,32.47
2022-12-03T22:14:48.687Z,28.85
2022-12-03T22:17:15.086Z,29.88
2022-12-03T22:19:42.122Z,29.55
2022-12-03T22:22:08.641Z,27.77
2022-12-03T22:24:35.122Z,27.10
2022-12-03T22:27:02.047Z,29.45
2022-12-03T22:29:28.477Z,30.17
2022-12-03T22:31:54.925Z,29.27
2022-12-03T22:34:21.388Z,27.40
2022-12-03T22:36:47.981Z,28.50
2022-12-03T22:39:14.417Z,29.55
2022-12-03T22:41:40.921Z,30.40
2022-12-03T22:44:07.385Z,28.52
2022-12-03T22:46:33.905Z,30.00
2022-12-03T22:49:06.460Z,29.63
2022-12-03T22:51:34.209Z,29.70
2022-12-03T22:54:01.956Z,28.17
2022-12-03T22:56:29.626Z,27.65
2022-12-03T22:58:56.158Z,30.67
2022-12-03T23:01:31.350Z,29.45
2022-12-03T23:03:58.581Z,30.55
2022-12-03T23:06:25.343Z,30.02
2022-12-03T23:08:52.250Z,32.10
2022-12-03T23:11:19.401Z,31.20
2022-12-03T23:13:46.446Z,32.55
2022-12-03T23:16:19.601Z,29.58
2022-12-03T23:18:46.485Z,30.13
2022-12-03T23:21:17.781Z,27.65
2022-12-03T23:23:44.274Z,30.80
2022-12-03T23:26:13.158Z,30.92
2022-12-03T23:28:41.247Z,30.17
2022-12-03T23:31:17.717Z,30.08
2022-12-03T23:33:45.025Z,31.15
2022-12-03T23:36:11.831Z,42.50
2022-12-03T23:38:39.272Z,44.30
2022-12-03T23:41:08.440Z,30.45
2022-12-03T23:43:34.948Z,33.47
2022-12-03T23:46:07.198Z,30.55
2022-12-03T23:48:33.772Z,29.20
2022-12-03T23:51:05.786Z,33.03
2022-12-03T23:53:32.474Z,30.33
2022-12-03T23:55:58.919Z,31.25
2022-12-03T23:58:25.349Z,29.48
